sensor_id;sensor_type;location;lat;lon;timestamp;P1;durP1;ratioP1;P2;durP2;ratioP2
20734;SDS011;10528;52.124;5.196;2024-02-04T00:02:17;16.15;;;8.40;;
20734;SDS011;10528;52.124;5.196;2024-02-04T00:04:49;20.13;;;9.70;;
20734;SDS011;10528;52.124;5.196;2024-02-04T00:07:16;21.42;;;9.70;;
20734;SDS011;10528;52.124;5.196;2024-02-04T00:09:43;20.70;;;9.73;;
20734;SDS011;10528;52.124;5.196;2024-02-04T00:12:10;24.90;;;9.20;;
20734;SDS011;10528;52.124;5.196;2024-02-04T00:14:37;18.45;;;8.63;;
20734;SDS011;10528;52.124;5.196;2024-02-04T00:17:07;20.52;;;8.57;;
20734;SDS011;10528;52.124;5.196;2024-02-04T00:19:33;18.50;;;7.72;;
20734;SDS011;10528;52.124;5.196;2024-02-04T00:22:00;17.33;;;7.20;;
20734;SDS011;10528;52.124;5.196;2024-02-04T00:24:27;14.93;;;6.65;;
20734;SDS011;10528;52.124;5.196;2024-02-04T00:26:54;13.60;;;7.53;;
20734;SDS011;10528;52.124;5.196;2024-02-04T00:29:21;15.57;;;7.65;;
20734;SDS011;10528;52.124;5.196;2024-02-04T00:31:48;16.83;;;8.07;;
20734;SDS011;10528;52.124;5.196;2024-02-04T00:34:15;18.55;;;8.20;;
20734;SDS011;10528;52.124;5.196;2024-02-04T00:36:42;19.45;;;8.27;;
20734;SDS011;10528;52.124;5.196;2024-02-04T00:39:09;17.70;;;8.80;;
20734;SDS011;10528;52.124;5.196;2024-02-04T00:41:37;21.30;;;8.52;;
20734;SDS011;10528;52.124;5.196;2024-02-04T00:44:04;19.80;;;8.95;;
20734;SDS011;10528;52.124;5.196;2024-02-04T00:46:31;18.15;;;8.68;;
20734;SDS011;10528;52.124;5.196;2024-02-04T00:48:58;21.73;;;8.35;;
20734;SDS011;10528;52.124;5.196;2024-02-04T00:51:25;21.27;;;8.98;;
20734;SDS011;10528;52.124;5.196;2024-02-04T00:53:52;20.52;;;9.60;;
20734;SDS011;10528;52.124;5.196;2024-02-04T00:56:20;18.67;;;8.82;;
20734;SDS011;10528;52.124;5.196;2024-02-04T00:58:47;19.65;;;9.43;;
20734;SDS011;10528;52.124;5.196;2024-02-04T01:01:14;20.27;;;9.00;;
20734;SDS011;10528;52.124;5.196;2024-02-04T01:03:41;17.92;;;8.35;;
20734;SDS011;10528;52.124;5.196;2024-02-04T01:06:09;17.90;;;8.90;;
20734;SDS011;10528;52.124;5.196;2024-02-04T01:08:35;18.48;;;7.82;;
20734;SDS011;10528;52.124;5.196;2024-02-04T01:11:06;20.70;;;8.27;;
20734;SDS011;10528;52.124;5.196;2024-02-04T01:13:33;19.67;;;7.95;;
20734;SDS011;10528;52.124;5.196;2024-02-04T01:16:00;21.70;;;7.43;;
20734;SDS011;10528;52.124;5.196;2024-02-04T01:18:27;17.95;;;7.65;;
20734;SDS011;10528;52.124;5.196;2024-02-04T01:20:54;16.02;;;7.07;;
20734;SDS011;10528;52.124;5.196;2024-02-04T01:23:21;11.00;;;6.35;;
20734;SDS011;10528;52.124;5.196;2024-02-04T01:25:48;17.75;;;7.18;;
20734;SDS011;10528;52.124;5.196;2024-02-04T01:28:15;14.68;;;6.45;;
20734;SDS011;10528;52.124;5.196;2024-02-04T01:30:42;14.48;;;6.72;;
20734;SDS011;10528;52.124;5.196;2024-02-04T01:33:09;18.15;;;7.18;;
20734;SDS011;10528;52.124;5.196;2024-02-04T01:35:36;17.55;;;7.47;;
20734;SDS011;10528;52.124;5.196;2024-02-04T01:38:03;18.17;;;7.30;;
20734;SDS011;10528;52.124;5.196;2024-02-04T01:40:30;15.40;;;6.53;;
20734;SDS011;10528;52.124;5.196;2024-02-04T01:42:57;14.98;;;7.68;;
20734;SDS011;10528;52.124;5.196;2024-02-04T01:45:24;17.55;;;7.90;;
20734;SDS011;10528;52.124;5.196;2024-02-04T01:47:51;16.27;;;7.18;;
20734;SDS011;10528;52.124;5.196;2024-02-04T01:50:20;18.60;;;7.50;;
20734;SDS011;10528;52.124;5.196;2024-02-04T01:52:48;20.02;;;7.60;;
20734;SDS011;10528;52.124;5.196;2024-02-04T01:55:17;17.50;;;6.80;;
20734;SDS011;10528;52.124;5.196;2024-02-04T01:57:45;14.52;;;6.63;;
20734;SDS011;10528;52.124;5.196;2024-02-04T02:00:16;18.55;;;6.22;;
20734;SDS011;10528;52.124;5.196;2024-02-04T02:02:46;13.18;;;5.53;;
20734;SDS011;10528;52.124;5.196;2024-02-04T02:05:17;14.13;;;5.57;;
20734;SDS011;10528;52.124;5.196;2024-02-04T02:07:44;12.75;;;5.55;;
20734;SDS011;10528;52.124;5.196;2024-02-04T02:10:14;16.02;;;5.25;;
20734;SDS011;10528;52.124;5.196;2024-02-04T02:12:48;10.57;;;5.40;;
20734;SDS011;10528;52.124;5.196;2024-02-04T02:15:28;13.15;;;5.88;;
20734;SDS011;10528;52.124;5.196;2024-02-04T02:18:10;15.57;;;6.05;;
20734;SDS011;10528;52.124;5.196;2024-02-04T02:23:36;16.98;;;5.75;;
20734;SDS011;10528;52.124;5.196;2024-02-04T02:26:29;14.93;;;5.75;;
20734;SDS011;10528;52.124;5.196;2024-02-04T02:29:00;16.98;;;6.95;;
20734;SDS011;10528;52.124;5.196;2024-02-04T02:31:27;13.93;;;6.55;;
20734;SDS011;10528;52.124;5.196;2024-02-04T02:34:11;17.15;;;7.15;;
20734;SDS011;10528;52.124;5.196;2024-02-04T02:36:56;19.35;;;7.50;;
20734;SDS011;10528;52.124;5.196;2024-02-04T02:39:50;14.50;;;7.65;;
20734;SDS011;10528;52.124;5.196;2024-02-04T02:42:19;21.48;;;8.60;;
20734;SDS011;10528;52.124;5.196;2024-02-04T02:44:49;22.88;;;10.13;;
20734;SDS011;10528;52.124;5.196;2024-02-04T02:47:18;22.90;;;11.52;;
20734;SDS011;10528;52.124;5.196;2024-02-04T02:49:50;21.35;;;10.63;;
20734;SDS011;10528;52.124;5.196;2024-02-04T02:52:19;22.70;;;10.50;;
20734;SDS011;10528;52.124;5.196;2024-02-04T02:54:49;21.40;;;9.98;;
20734;SDS011;10528;52.124;5.196;2024-02-04T02:57:16;22.92;;;11.30;;
20734;SDS011;10528;52.124;5.196;2024-02-04T02:59:43;16.67;;;9.93;;
20734;SDS011;10528;52.124;5.196;2024-02-04T03:02:10;28.90;;;10.10;;
20734;SDS011;10528;52.124;5.196;2024-02-04T03:04:39;19.60;;;9.57;;
20734;SDS011;10528;52.124;5.196;2024-02-04T03:07:06;20.05;;;9.18;;
20734;SDS011;10528;52.124;5.196;2024-02-04T03:09:34;20.67;;;9.10;;
20734;SDS011;10528;52.124;5.196;2024-02-04T03:12:01;17.80;;;8.18;;
20734;SDS011;10528;52.124;5.196;2024-02-04T03:14:28;17.45;;;8.30;;
20734;SDS011;10528;52.124;5.196;2024-02-04T03:16:55;15.30;;;6.57;;
20734;SDS011;10528;52.124;5.196;2024-02-04T03:19:22;15.23;;;6.13;;
20734;SDS011;10528;52.124;5.196;2024-02-04T03:21:49;17.00;;;5.30;;
20734;SDS011;10528;52.124;5.196;2024-02-04T03:24:16;11.15;;;4.70;;
20734;SDS011;10528;52.124;5.196;2024-02-04T03:26:43;13.82;;;4.03;;
20734;SDS011;10528;52.124;5.196;2024-02-04T03:29:10;10.60;;;3.35;;
20734;SDS011;10528;52.124;5.196;2024-02-04T03:31:37;10.95;;;3.20;;
20734;SDS011;10528;52.124;5.196;2024-02-04T03:34:04;10.55;;;3.10;;
20734;SDS011;10528;52.124;5.196;2024-02-04T03:36:31;9.50;;;2.83;;
20734;SDS011;10528;52.124;5.196;2024-02-04T03:38:58;6.80;;;2.67;;
20734;SDS011;10528;52.124;5.196;2024-02-04T03:41:25;8.93;;;3.28;;
20734;SDS011;10528;52.124;5.196;2024-02-04T03:43:52;11.40;;;3.10;;
20734;SDS011;10528;52.124;5.196;2024-02-04T03:46:21;8.27;;;3.65;;
20734;SDS011;10528;52.124;5.196;2024-02-04T03:48:49;15.10;;;3.38;;
20734;SDS011;10528;52.124;5.196;2024-02-04T03:51:16;11.57;;;4.22;;
20734;SDS011;10528;52.124;5.196;2024-02-04T03:53:47;12.65;;;4.75;;
20734;SDS011;10528;52.124;5.196;2024-02-04T03:56:15;8.98;;;4.00;;
20734;SDS011;10528;52.124;5.196;2024-02-04T03:58:42;10.52;;;4.30;;
20734;SDS011;10528;52.124;5.196;2024-02-04T04:01:10;13.77;;;4.47;;
20734;SDS011;10528;52.124;5.196;2024-02-04T04:03:39;14.00;;;4.35;;
20734;SDS011;10528;52.124;5.196;2024-02-04T04:06:10;16.88;;;5.82;;
20734;SDS011;10528;52.124;5.196;2024-02-04T04:08:37;10.15;;;4.88;;
20734;SDS011;10528;52.124;5.196;2024-02-04T04:11:05;13.48;;;4.70;;
20734;SDS011;10528;52.124;5.196;2024-02-04T04:13:36;11.48;;;4.80;;
20734;SDS011;10528;52.124;5.196;2024-02-04T04:16:04;14.15;;;5.20;;
20734;SDS011;10528;52.124;5.196;2024-02-04T04:18:32;16.13;;;5.55;;
20734;SDS011;10528;52.124;5.196;2024-02-04T04:20:59;13.50;;;4.40;;
20734;SDS011;10528;52.124;5.196;2024-02-04T04:23:26;10.57;;;4.30;;
20734;SDS011;10528;52.124;5.196;2024-02-04T04:25:53;10.85;;;3.90;;
20734;SDS011;10528;52.124;5.196;2024-02-04T04:28:20;14.35;;;4.63;;
20734;SDS011;10528;52.124;5.196;2024-02-04T04:30:47;11.35;;;3.33;;
20734;SDS011;10528;52.124;5.196;2024-02-04T04:33:14;13.30;;;3.60;;
20734;SDS011;10528;52.124;5.196;2024-02-04T04:35:41;10.95;;;3.67;;
20734;SDS011;10528;52.124;5.196;2024-02-04T04:38:08;8.70;;;3.35;;
20734;SDS011;10528;52.124;5.196;2024-02-04T04:40:35;9.57;;;3.85;;
20734;SDS011;10528;52.124;5.196;2024-02-04T04:43:02;8.57;;;3.55;;
20734;SDS011;10528;52.124;5.196;2024-02-04T04:45:29;7.68;;;3.00;;
20734;SDS011;10528;52.124;5.196;2024-02-04T04:47:56;9.55;;;3.10;;
20734;SDS011;10528;52.124;5.196;2024-02-04T04:50:23;11.40;;;3.55;;
20734;SDS011;10528;52.124;5.196;2024-02-04T04:52:50;12.95;;;3.80;;
20734;SDS011;10528;52.124;5.196;2024-02-04T04:55:18;10.82;;;4.20;;
20734;SDS011;10528;52.124;5.196;2024-02-04T04:57:45;14.30;;;4.88;;
20734;SDS011;10528;52.124;5.196;2024-02-04T05:00:13;12.55;;;4.78;;
20734;SDS011;10528;52.124;5.196;2024-02-04T05:02:41;18.20;;;5.72;;
20734;SDS011;10528;52.124;5.196;2024-02-04T05:05:10;13.63;;;5.22;;
20734;SDS011;10528;52.124;5.196;2024-02-04T05:07:38;13.65;;;6.25;;
20734;SDS011;10528;52.124;5.196;2024-02-04T05:10:06;15.02;;;6.43;;
20734;SDS011;10528;52.124;5.196;2024-02-04T05:12:34;13.63;;;6.40;;
20734;SDS011;10528;52.124;5.196;2024-02-04T05:15:03;16.42;;;6.57;;
20734;SDS011;10528;52.124;5.196;2024-02-04T05:17:31;15.25;;;6.03;;
20734;SDS011;10528;52.124;5.196;2024-02-04T05:20:00;16.38;;;6.93;;
20734;SDS011;10528;52.124;5.196;2024-02-04T05:22:29;15.90;;;6.40;;
20734;SDS011;10528;52.124;5.196;2024-02-04T05:24:56;15.70;;;6.25;;
20734;SDS011;10528;52.124;5.196;2024-02-04T05:27:23;13.73;;;6.35;;
20734;SDS011;10528;52.124;5.196;2024-02-04T05:29:50;14.57;;;6.10;;
20734;SDS011;10528;52.124;5.196;2024-02-04T05:32:17;16.27;;;5.60;;
20734;SDS011;10528;52.124;5.196;2024-02-04T05:34:44;14.57;;;5.40;;
20734;SDS011;10528;52.124;5.196;2024-02-04T05:37:11;11.07;;;5.15;;
20734;SDS011;10528;52.124;5.196;2024-02-04T05:39:38;13.82;;;4.78;;
20734;SDS011;10528;52.124;5.196;2024-02-04T05:42:05;15.63;;;5.22;;
20734;SDS011;10528;52.124;5.196;2024-02-04T05:44:32;8.10;;;4.50;;
20734;SDS011;10528;52.124;5.196;2024-02-04T05:46:59;12.15;;;4.75;;
20734;SDS011;10528;52.124;5.196;2024-02-04T05:49:26;9.77;;;4.80;;
20734;SDS011;10528;52.124;5.196;2024-02-04T05:51:53;10.35;;;4.97;;
20734;SDS011;10528;52.124;5.196;2024-02-04T05:54:20;12.95;;;6.28;;
20734;SDS011;10528;52.124;5.196;2024-02-04T05:56:47;10.48;;;5.68;;
20734;SDS011;10528;52.124;5.196;2024-02-04T05:59:14;11.50;;;7.22;;
20734;SDS011;10528;52.124;5.196;2024-02-04T06:01:42;16.15;;;7.93;;
20734;SDS011;10528;52.124;5.196;2024-02-04T06:04:11;16.58;;;8.18;;
20734;SDS011;10528;52.124;5.196;2024-02-04T06:06:38;13.77;;;7.03;;
20734;SDS011;10528;52.124;5.196;2024-02-04T06:09:05;12.27;;;6.75;;
20734;SDS011;10528;52.124;5.196;2024-02-04T06:11:32;13.60;;;7.15;;
20734;SDS011;10528;52.124;5.196;2024-02-04T06:13:59;14.95;;;8.35;;
20734;SDS011;10528;52.124;5.196;2024-02-04T06:16:26;16.00;;;8.55;;
20734;SDS011;10528;52.124;5.196;2024-02-04T06:18:53;18.20;;;8.52;;
20734;SDS011;10528;52.124;5.196;2024-02-04T06:21:23;21.55;;;10.18;;
20734;SDS011;10528;52.124;5.196;2024-02-04T06:23:50;16.80;;;9.80;;
20734;SDS011;10528;52.124;5.196;2024-02-04T06:26:17;19.48;;;10.20;;
20734;SDS011;10528;52.124;5.196;2024-02-04T06:28:44;23.52;;;10.55;;
20734;SDS011;10528;52.124;5.196;2024-02-04T06:31:13;19.65;;;10.82;;
20734;SDS011;10528;52.124;5.196;2024-02-04T06:33:40;21.35;;;10.45;;
20734;SDS011;10528;52.124;5.196;2024-02-04T06:36:10;20.55;;;11.73;;
20734;SDS011;10528;52.124;5.196;2024-02-04T06:38:37;21.15;;;11.55;;
20734;SDS011;10528;52.124;5.196;2024-02-04T06:41:04;20.88;;;11.82;;
20734;SDS011;10528;52.124;5.196;2024-02-04T06:43:32;19.48;;;12.20;;
20734;SDS011;10528;52.124;5.196;2024-02-04T06:46:02;19.27;;;10.80;;
20734;SDS011;10528;52.124;5.196;2024-02-04T06:48:29;17.50;;;10.07;;
20734;SDS011;10528;52.124;5.196;2024-02-04T06:50:57;22.15;;;10.85;;
20734;SDS011;10528;52.124;5.196;2024-02-04T06:53:24;19.23;;;10.63;;
20734;SDS011;10528;52.124;5.196;2024-02-04T06:55:51;19.67;;;10.23;;
20734;SDS011;10528;52.124;5.196;2024-02-04T06:58:17;21.75;;;10.13;;
20734;SDS011;10528;52.124;5.196;2024-02-04T07:00:45;19.08;;;10.00;;
20734;SDS011;10528;52.124;5.196;2024-02-04T07:03:13;18.38;;;9.75;;
20734;SDS011;10528;52.124;5.196;2024-02-04T07:05:41;18.13;;;9.02;;
20734;SDS011;10528;52.124;5.196;2024-02-04T07:08:09;18.88;;;9.95;;
20734;SDS011;10528;52.124;5.196;2024-02-04T07:10:36;18.50;;;9.55;;
20734;SDS011;10528;52.124;5.196;2024-02-04T07:13:03;19.67;;;9.13;;
20734;SDS011;10528;52.124;5.196;2024-02-04T07:15:30;18.27;;;9.10;;
20734;SDS011;10528;52.124;5.196;2024-02-04T07:17:57;17.90;;;9.88;;
20734;SDS011;10528;52.124;5.196;2024-02-04T07:20:24;15.18;;;9.48;;
20734;SDS011;10528;52.124;5.196;2024-02-04T07:22:51;18.15;;;8.43;;
20734;SDS011;10528;52.124;5.196;2024-02-04T07:25:17;14.68;;;8.85;;
20734;SDS011;10528;52.124;5.196;2024-02-04T07:27:44;16.52;;;9.00;;
20734;SDS011;10528;52.124;5.196;2024-02-04T07:30:11;15.80;;;9.48;;
20734;SDS011;10528;52.124;5.196;2024-02-04T07:32:38;12.48;;;7.93;;
20734;SDS011;10528;52.124;5.196;2024-02-04T07:35:05;15.52;;;8.27;;
20734;SDS011;10528;52.124;5.196;2024-02-04T07:37:35;14.73;;;7.55;;
20734;SDS011;10528;52.124;5.196;2024-02-04T07:40:02;14.48;;;7.90;;
20734;SDS011;10528;52.124;5.196;2024-02-04T07:42:31;12.07;;;7.95;;
20734;SDS011;10528;52.124;5.196;2024-02-04T07:44:58;13.07;;;8.07;;
20734;SDS011;10528;52.124;5.196;2024-02-04T07:47:25;11.70;;;6.32;;
20734;SDS011;10528;52.124;5.196;2024-02-04T07:49:52;11.25;;;6.00;;
20734;SDS011;10528;52.124;5.196;2024-02-04T07:52:19;12.73;;;5.30;;
20734;SDS011;10528;52.124;5.196;2024-02-04T07:54:46;11.05;;;5.10;;
20734;SDS011;10528;52.124;5.196;2024-02-04T07:57:13;10.60;;;5.50;;
20734;SDS011;10528;52.124;5.196;2024-02-04T07:59:40;12.48;;;4.57;;
20734;SDS011;10528;52.124;5.196;2024-02-04T08:02:07;8.88;;;4.43;;
20734;SDS011;10528;52.124;5.196;2024-02-04T08:04:34;7.60;;;3.97;;
20734;SDS011;10528;52.124;5.196;2024-02-04T08:07:01;7.40;;;4.10;;
20734;SDS011;10528;52.124;5.196;2024-02-04T08:09:28;7.32;;;3.63;;
20734;SDS011;10528;52.124;5.196;2024-02-04T08:11:55;8.15;;;3.70;;
20734;SDS011;10528;52.124;5.196;2024-02-04T08:14:25;10.80;;;4.63;;
20734;SDS011;10528;52.124;5.196;2024-02-04T08:16:52;7.32;;;3.35;;
20734;SDS011;10528;52.124;5.196;2024-02-04T08:19:19;7.10;;;3.25;;
20734;SDS011;10528;52.124;5.196;2024-02-04T08:21:46;6.15;;;2.70;;
20734;SDS011;10528;52.124;5.196;2024-02-04T08:24:13;6.47;;;2.70;;
20734;SDS011;10528;52.124;5.196;2024-02-04T08:26:40;8.05;;;3.40;;
20734;SDS011;10528;52.124;5.196;2024-02-04T08:29:07;6.88;;;3.03;;
20734;SDS011;10528;52.124;5.196;2024-02-04T08:31:34;6.78;;;3.05;;
20734;SDS011;10528;52.124;5.196;2024-02-04T08:34:01;7.25;;;3.45;;
20734;SDS011;10528;52.124;5.196;2024-02-04T08:36:29;8.60;;;3.30;;
20734;SDS011;10528;52.124;5.196;2024-02-04T08:38:58;7.00;;;3.90;;
20734;SDS011;10528;52.124;5.196;2024-02-04T08:41:25;10.05;;;3.50;;
20734;SDS011;10528;52.124;5.196;2024-02-04T08:43:52;11.23;;;3.85;;
20734;SDS011;10528;52.124;5.196;2024-02-04T08:46:19;12.32;;;4.85;;
20734;SDS011;10528;52.124;5.196;2024-02-04T08:48:46;7.63;;;4.28;;
20734;SDS011;10528;52.124;5.196;2024-02-04T08:51:13;11.88;;;6.00;;
20734;SDS011;10528;52.124;5.196;2024-02-04T08:53:42;15.30;;;5.38;;
20734;SDS011;10528;52.124;5.196;2024-02-04T08:56:09;13.63;;;5.63;;
20734;SDS011;10528;52.124;5.196;2024-02-04T08:58:36;12.80;;;5.65;;
20734;SDS011;10528;52.124;5.196;2024-02-04T09:01:04;11.18;;;5.40;;
20734;SDS011;10528;52.124;5.196;2024-02-04T09:03:32;10.20;;;4.90;;
20734;SDS011;10528;52.124;5.196;2024-02-04T09:06:00;12.13;;;5.15;;
20734;SDS011;10528;52.124;5.196;2024-02-04T09:08:27;11.20;;;3.95;;
20734;SDS011;10528;52.124;5.196;2024-02-04T09:10:54;9.57;;;4.18;;
20734;SDS011;10528;52.124;5.196;2024-02-04T09:13:21;10.80;;;4.50;;
20734;SDS011;10528;52.124;5.196;2024-02-04T09:15:50;10.00;;;3.88;;
20734;SDS011;10528;52.124;5.196;2024-02-04T09:18:17;6.45;;;2.90;;
20734;SDS011;10528;52.124;5.196;2024-02-04T09:20:44;7.90;;;2.60;;
20734;SDS011;10528;52.124;5.196;2024-02-04T09:23:12;6.75;;;2.53;;
20734;SDS011;10528;52.124;5.196;2024-02-04T09:25:38;6.03;;;2.40;;
20734;SDS011;10528;52.124;5.196;2024-02-04T09:28:05;7.60;;;2.50;;
20734;SDS011;10528;52.124;5.196;2024-02-04T09:30:32;4.60;;;1.73;;
20734;SDS011;10528;52.124;5.196;2024-02-04T09:32:59;5.78;;;2.22;;
20734;SDS011;10528;52.124;5.196;2024-02-04T09:35:27;6.07;;;2.05;;
20734;SDS011;10528;52.124;5.196;2024-02-04T09:37:54;6.40;;;1.98;;
20734;SDS011;10528;52.124;5.196;2024-02-04T09:40:21;7.40;;;1.88;;
20734;SDS011;10528;52.124;5.196;2024-02-04T09:42:49;6.07;;;2.15;;
20734;SDS011;10528;52.124;5.196;2024-02-04T09:45:18;5.25;;;2.03;;
20734;SDS011;10528;52.124;5.196;2024-02-04T09:47:45;6.03;;;2.20;;
20734;SDS011;10528;52.124;5.196;2024-02-04T09:50:16;7.80;;;1.83;;
20734;SDS011;10528;52.124;5.196;2024-02-04T09:52:49;7.22;;;2.25;;
20734;SDS011;10528;52.124;5.196;2024-02-04T09:55:20;8.00;;;1.95;;
20734;SDS011;10528;52.124;5.196;2024-02-04T09:57:49;8.30;;;2.70;;
20734;SDS011;10528;52.124;5.196;2024-02-04T10:00:18;5.28;;;1.88;;
20734;SDS011;10528;52.124;5.196;2024-02-04T10:02:49;7.63;;;2.45;;
20734;SDS011;10528;52.124;5.196;2024-02-04T10:05:17;4.82;;;1.73;;
20734;SDS011;10528;52.124;5.196;2024-02-04T10:07:44;5.15;;;1.60;;
20734;SDS011;10528;52.124;5.196;2024-02-04T10:10:11;4.93;;;1.60;;
20734;SDS011;10528;52.124;5.196;2024-02-04T10:12:39;6.05;;;1.95;;
20734;SDS011;10528;52.124;5.196;2024-02-04T10:15:07;4.35;;;1.60;;
20734;SDS011;10528;52.124;5.196;2024-02-04T10:17:35;5.00;;;1.33;;
20734;SDS011;10528;52.124;5.196;2024-02-04T10:20:02;2.53;;;1.02;;
20734;SDS011;10528;52.124;5.196;2024-02-04T10:22:30;3.65;;;1.40;;
20734;SDS011;10528;52.124;5.196;2024-02-04T10:25:09;5.18;;;1.45;;
20734;SDS011;10528;52.124;5.196;2024-02-04T10:27:41;6.30;;;1.35;;
20734;SDS011;10528;52.124;5.196;2024-02-04T10:30:09;2.05;;;0.80;;
20734;SDS011;10528;52.124;5.196;2024-02-04T10:32:37;2.65;;;0.80;;
20734;SDS011;10528;52.124;5.196;2024-02-04T10:35:04;3.15;;;1.00;;
20734;SDS011;10528;52.124;5.196;2024-02-04T10:37:31;2.92;;;1.00;;
20734;SDS011;10528;52.124;5.196;2024-02-04T10:39:58;1.90;;;1.08;;
20734;SDS011;10528;52.124;5.196;2024-02-04T10:42:26;2.55;;;0.90;;
20734;SDS011;10528;52.124;5.196;2024-02-04T10:44:55;1.85;;;0.90;;
20734;SDS011;10528;52.124;5.196;2024-02-04T10:47:29;3.58;;;0.80;;
20734;SDS011;10528;52.124;5.196;2024-02-04T10:50:00;1.65;;;0.70;;
20734;SDS011;10528;52.124;5.196;2024-02-04T10:52:37;1.65;;;0.65;;
20734;SDS011;10528;52.124;5.196;2024-02-04T10:55:09;6.82;;;2.08;;
20734;SDS011;10528;52.124;5.196;2024-02-04T10:57:38;3.05;;;0.90;;
20734;SDS011;10528;52.124;5.196;2024-02-04T11:00:07;4.43;;;1.80;;
20734;SDS011;10528;52.124;5.196;2024-02-04T11:02:38;1.92;;;0.95;;
20734;SDS011;10528;52.124;5.196;2024-02-04T11:05:07;3.83;;;0.70;;
20734;SDS011;10528;52.124;5.196;2024-02-04T11:07:36;2.33;;;1.05;;
20734;SDS011;10528;52.124;5.196;2024-02-04T11:10:03;1.67;;;1.00;;
20734;SDS011;10528;52.124;5.196;2024-02-04T11:12:32;1.77;;;0.93;;
20734;SDS011;10528;52.124;5.196;2024-02-04T11:15:04;2.22;;;1.10;;
20734;SDS011;10528;52.124;5.196;2024-02-04T11:26:52;5.68;;;1.77;;
20734;SDS011;10528;52.124;5.196;2024-02-04T11:29:19;2.60;;;1.67;;
20734;SDS011;10528;52.124;5.196;2024-02-04T11:31:47;6.40;;;1.77;;
20734;SDS011;10528;52.124;5.196;2024-02-04T11:34:15;4.28;;;1.80;;
20734;SDS011;10528;52.124;5.196;2024-02-04T11:36:43;5.57;;;2.10;;
20734;SDS011;10528;52.124;5.196;2024-02-04T11:39:15;9.98;;;2.53;;
20734;SDS011;10528;52.124;5.196;2024-02-04T11:41:48;6.97;;;2.65;;
20734;SDS011;10528;52.124;5.196;2024-02-04T11:44:22;5.53;;;2.00;;
20734;SDS011;10528;52.124;5.196;2024-02-04T11:46:52;6.53;;;1.77;;
20734;SDS011;10528;52.124;5.196;2024-02-04T11:49:24;11.85;;;2.38;;
20734;SDS011;10528;52.124;5.196;2024-02-04T11:51:52;9.15;;;2.50;;
20734;SDS011;10528;52.124;5.196;2024-02-04T11:54:20;8.45;;;2.10;;
20734;SDS011;10528;52.124;5.196;2024-02-04T11:56:48;5.22;;;1.70;;
20734;SDS011;10528;52.124;5.196;2024-02-04T11:59:23;7.60;;;1.83;;
20734;SDS011;10528;52.124;5.196;2024-02-04T12:01:57;8.05;;;1.98;;
20734;SDS011;10528;52.124;5.196;2024-02-04T12:04:27;7.25;;;2.10;;
20734;SDS011;10528;52.124;5.196;2024-02-04T12:06:55;9.40;;;2.17;;
20734;SDS011;10528;52.124;5.196;2024-02-04T12:09:23;8.57;;;1.80;;
20734;SDS011;10528;52.124;5.196;2024-02-04T12:11:53;8.23;;;1.80;;
20734;SDS011;10528;52.124;5.196;2024-02-04T12:14:20;7.45;;;1.42;;
20734;SDS011;10528;52.124;5.196;2024-02-04T12:16:48;4.82;;;1.55;;
20734;SDS011;10528;52.124;5.196;2024-02-04T12:19:15;7.97;;;1.65;;
20734;SDS011;10528;52.124;5.196;2024-02-04T12:21:43;7.25;;;1.67;;
20734;SDS011;10528;52.124;5.196;2024-02-04T12:24:11;6.45;;;2.00;;
20734;SDS011;10528;52.124;5.196;2024-02-04T12:26:38;6.90;;;1.75;;
20734;SDS011;10528;52.124;5.196;2024-02-04T12:29:06;6.22;;;1.70;;
20734;SDS011;10528;52.124;5.196;2024-02-04T12:31:33;6.32;;;1.75;;
20734;SDS011;10528;52.124;5.196;2024-02-04T12:34:00;5.00;;;1.85;;
20734;SDS011;10528;52.124;5.196;2024-02-04T12:36:29;5.15;;;1.70;;
20734;SDS011;10528;52.124;5.196;2024-02-04T12:38:58;12.63;;;2.40;;
20734;SDS011;10528;52.124;5.196;2024-02-04T12:41:27;3.92;;;1.55;;
20734;SDS011;10528;52.124;5.196;2024-02-04T12:43:56;7.40;;;2.00;;
20734;SDS011;10528;52.124;5.196;2024-02-04T12:46:26;5.93;;;1.55;;
20734;SDS011;10528;52.124;5.196;2024-02-04T12:48:54;8.55;;;1.85;;
20734;SDS011;10528;52.124;5.196;2024-02-04T12:51:28;6.53;;;1.40;;
20734;SDS011;10528;52.124;5.196;2024-02-04T12:54:10;5.85;;;1.42;;
20734;SDS011;10528;52.124;5.196;2024-02-04T12:56:49;6.90;;;1.60;;
20734;SDS011;10528;52.124;5.196;2024-02-04T13:01:59;6.18;;;1.70;;
20734;SDS011;10528;52.124;5.196;2024-02-04T13:04:35;7.45;;;1.50;;
20734;SDS011;10528;52.124;5.196;2024-02-04T13:07:09;6.78;;;1.90;;
20734;SDS011;10528;52.124;5.196;2024-02-04T13:09:44;8.52;;;1.60;;
20734;SDS011;10528;52.124;5.196;2024-02-04T13:12:12;6.47;;;1.60;;
20734;SDS011;10528;52.124;5.196;2024-02-04T13:14:42;7.50;;;1.58;;
20734;SDS011;10528;52.124;5.196;2024-02-04T13:17:10;8.20;;;1.65;;
20734;SDS011;10528;52.124;5.196;2024-02-04T13:19:38;7.43;;;1.42;;
20734;SDS011;10528;52.124;5.196;2024-02-04T13:22:06;3.95;;;1.30;;
20734;SDS011;10528;52.124;5.196;2024-02-04T13:24:36;3.78;;;1.33;;
20734;SDS011;10528;52.124;5.196;2024-02-04T13:27:03;3.97;;;1.40;;
20734;SDS011;10528;52.124;5.196;2024-02-04T13:29:32;4.55;;;1.35;;
20734;SDS011;10528;52.124;5.196;2024-02-04T13:32:01;6.35;;;1.52;;
20734;SDS011;10528;52.124;5.196;2024-02-04T13:34:28;6.18;;;1.50;;
20734;SDS011;10528;52.124;5.196;2024-02-04T13:36:55;5.30;;;1.50;;
20734;SDS011;10528;52.124;5.196;2024-02-04T13:39:22;6.78;;;1.60;;
20734;SDS011;10528;52.124;5.196;2024-02-04T13:41:49;5.28;;;1.50;;
20734;SDS011;10528;52.124;5.196;2024-02-04T13:44:16;6.00;;;1.80;;
20734;SDS011;10528;52.124;5.196;2024-02-04T13:46:43;6.43;;;2.00;;
20734;SDS011;10528;52.124;5.196;2024-02-04T13:49:10;8.10;;;2.80;;
20734;SDS011;10528;52.124;5.196;2024-02-04T13:51:40;9.15;;;2.25;;
20734;SDS011;10528;52.124;5.196;2024-02-04T13:54:11;8.88;;;2.47;;
20734;SDS011;10528;52.124;5.196;2024-02-04T13:56:44;9.77;;;2.90;;
20734;SDS011;10528;52.124;5.196;2024-02-04T13:59:12;11.75;;;2.85;;
20734;SDS011;10528;52.124;5.196;2024-02-04T14:01:39;11.75;;;3.22;;
20734;SDS011;10528;52.124;5.196;2024-02-04T14:04:06;10.60;;;2.92;;
20734;SDS011;10528;52.124;5.196;2024-02-04T14:06:33;13.85;;;3.30;;
20734;SDS011;10528;52.124;5.196;2024-02-04T14:09:01;11.85;;;2.83;;
20734;SDS011;10528;52.124;5.196;2024-02-04T14:11:29;12.10;;;2.75;;
20734;SDS011;10528;52.124;5.196;2024-02-04T14:13:56;16.27;;;3.03;;
20734;SDS011;10528;52.124;5.196;2024-02-04T14:16:23;10.68;;;2.75;;
20734;SDS011;10528;52.124;5.196;2024-02-04T14:18:51;12.18;;;2.83;;
20734;SDS011;10528;52.124;5.196;2024-02-04T14:21:19;11.60;;;2.60;;
20734;SDS011;10528;52.124;5.196;2024-02-04T14:23:46;9.68;;;2.70;;
20734;SDS011;10528;52.124;5.196;2024-02-04T14:26:17;14.48;;;3.15;;
20734;SDS011;10528;52.124;5.196;2024-02-04T14:28:45;15.30;;;3.30;;
20734;SDS011;10528;52.124;5.196;2024-02-04T14:31:12;7.05;;;3.03;;
20734;SDS011;10528;52.124;5.196;2024-02-04T14:33:40;15.38;;;2.70;;
20734;SDS011;10528;52.124;5.196;2024-02-04T14:36:07;13.13;;;2.95;;
20734;SDS011;10528;52.124;5.196;2024-02-04T14:38:36;12.52;;;2.95;;
20734;SDS011;10528;52.124;5.196;2024-02-04T14:41:05;8.45;;;2.40;;
20734;SDS011;10528;52.124;5.196;2024-02-04T14:43:32;9.70;;;2.92;;
20734;SDS011;10528;52.124;5.196;2024-02-04T14:46:01;11.88;;;2.50;;
20734;SDS011;10528;52.124;5.196;2024-02-04T14:48:29;13.18;;;2.75;;
20734;SDS011;10528;52.124;5.196;2024-02-04T14:50:56;12.80;;;2.70;;
20734;SDS011;10528;52.124;5.196;2024-02-04T14:53:26;7.97;;;2.15;;
20734;SDS011;10528;52.124;5.196;2024-02-04T14:55:53;12.68;;;2.80;;
20734;SDS011;10528;52.124;5.196;2024-02-04T14:58:22;9.80;;;2.25;;
20734;SDS011;10528;52.124;5.196;2024-02-04T15:00:49;11.52;;;3.20;;